Time;durP1;ratioP1;P1;durP2;ratioP2;P2;SDS_P1;SDS_P2;PMS_P1;PMS_P2;Temp;Humidity;BMP_temperature;BMP_pressure;BME280_temperature;BME280_humidity;BME280_pressure;Samples;Min_cycle;Max_cycle;Signal;HPM_P1;HPM_P2
2022/08/19 00:00:09;;;;;;;5.47;3.25;;;;;;;;;;5018071;28;20026;-73
2022/08/19 00:02:35;;;;;;;7.40;3.40;;;;;;;;;;5017872;28;20042;-74
2022/08/19 00:05:01;;;;;;;8.05;3.13;;;;;;;;;;5017723;28;20049;-74
2022/08/19 00:07:27;;;;;;;7.20;3.17;;;;;;;;;;4999867;28;20296;-74
2022/08/19 00:09:53;;;;;;;7.45;3.40;;;;;;;;;;5017930;28;20382;-74
2022/08/19 00:12:19;;;;;;;8.23;3.40;;;;;;;;;;5019931;28;20029;-73
2022/08/19 00:14:45;;;;;;;6.65;3.10;;;;;;;;;;5021417;28;20034;-74
2022/08/19 00:17:10;;;;;;;6.25;3.40;;;;;;;;;;5021207;28;20071;-74
2022/08/19 00:19:36;;;;;;;6.85;3.40;;;;;;;;;;5020878;28;20300;-74
2022/08/19 00:22:02;;;;;;;5.60;2.97;;;;;;;;;;5020759;28;20025;-74
2022/08/19 00:24:28;;;;;;;7.65;3.42;;;;;;;;;;5021082;28;20328;-74
2022/08/19 00:26:56;;;;;;;6.93;3.22;;;;;;;;;;5020923;28;20033;-74
2022/08/19 00:29:23;;;;;;;5.13;3.10;;;;;;;;;;5021125;28;20071;-74
2022/08/19 00:31:49;;;;;;;5.88;3.42;;;;;;;;;;5021028;28;20093;-73
2022/08/19 00:34:15;;;;;;;6.05;3.13;;;;;;;;;;5020924;28;20030;-74
2022/08/19 00:36:42;;;;;;;8.43;2.92;;;;;;;;;;5020526;28;20044;-74
2022/08/19 00:39:08;;;;;;;8.02;3.50;;;;;;;;;;5020922;28;20022;-73
2022/08/19 00:41:33;;;;;;;7.97;3.38;;;;;;;;;;5020958;28;20030;-74
2022/08/19 00:44:05;;;;;;;8.77;3.13;;;;;;;;;;5020678;28;20040;-74
2022/08/19 00:46:33;;;;;;;7.75;3.40;;;;;;;;;;5020561;28;20060;-74
2022/08/19 00:49:00;;;;;;;6.90;3.38;;;;;;;;;;5020795;28;20052;-74
2022/08/19 00:51:28;;;;;;;10.25;3.35;;;;;;;;;;5020455;28;20313;-74
2022/08/19 00:53:56;;;;;;;6.75;3.53;;;;;;;;;;5020740;28;20262;-73
2022/08/19 00:56:23;;;;;;;9.15;3.60;;;;;;;;;;5020579;28;20071;-74
2022/08/19 00:58:49;;;;;;;6.40;3.50;;;;;;;;;;5020511;28;20041;-74
2022/08/19 01:01:14;;;;;;;5.88;3.30;;;;;;;;;;5020505;28;20101;-74
2022/08/19 01:03:40;;;;;;;5.15;3.13;;;;;;;;;;5020435;28;20033;-74
2022/08/19 01:06:05;;;;;;;9.45;3.30;;;;;;;;;;5013393;28;20037;-74
2022/08/19 01:08:31;;;;;;;8.48;3.80;;;;;;;;;;5008449;28;20130;-74
2022/08/19 01:10:59;;;;;;;9.02;3.47;;;;;;;;;;5009073;28;20022;-74
2022/08/19 01:13:28;;;;;;;8.18;3.15;;;;;;;;;;5008889;28;20022;-74
2022/08/19 01:16:01;;;;;;;7.40;3.25;;;;;;;;;;5008975;28;20497;-73
2022/08/19 01:18:27;;;;;;;7.50;3.35;;;;;;;;;;5008890;28;20026;-74
2022/08/19 01:20:55;;;;;;;5.63;3.47;;;;;;;;;;5016786;28;20066;-73
2022/08/19 01:23:21;;;;;;;7.50;3.35;;;;;;;;;;5007536;28;20106;-74
2022/08/19 01:25:50;;;;;;;10.10;3.38;;;;;;;;;;5008819;28;20109;-73
2022/08/19 01:28:26;;;;;;;10.50;3.83;;;;;;;;;;5008588;28;20033;-73
2022/08/19 01:30:53;;;;;;;6.78;3.55;;;;;;;;;;5009541;28;20030;-74
2022/08/19 01:33:19;;;;;;;8.43;3.70;;;;;;;;;;5014410;28;20309;-73
2022/08/19 01:35:44;;;;;;;6.82;3.55;;;;;;;;;;5018564;28;20026;-73
2022/08/19 01:38:26;;;;;;;10.90;3.55;;;;;;;;;;5011041;28;20026;-74
2022/08/19 01:40:52;;;;;;;7.43;3.42;;;;;;;;;;5020128;28;20033;-74
2022/08/19 01:43:18;;;;;;;11.32;3.95;;;;;;;;;;5020028;28;20025;-74
2022/08/19 01:45:45;;;;;;;9.73;3.65;;;;;;;;;;5010523;28;20029;-74
2022/08/19 01:48:10;;;;;;;6.68;3.50;;;;;;;;;;5017815;28;20127;-73
2022/08/19 01:50:36;;;;;;;7.47;3.60;;;;;;;;;;5019402;28;20055;-74
2022/08/19 01:53:05;;;;;;;8.15;3.65;;;;;;;;;;5014517;28;20067;-73
2022/08/19 01:55:31;;;;;;;10.32;3.97;;;;;;;;;;5019929;28;20021;-73
2022/08/19 01:57:59;;;;;;;9.55;3.42;;;;;;;;;;5019762;28;20044;-73
2022/08/19 02:00:29;;;;;;;11.60;3.60;;;;;;;;;;5019718;28;20085;-73
2022/08/19 02:02:54;;;;;;;9.03;3.40;;;;;;;;;;5019708;28;20314;-74
2022/08/19 02:05:21;;;;;;;9.80;3.75;;;;;;;;;;5019523;28;20042;-73
2022/08/19 02:07:47;;;;;;;9.88;3.70;;;;;;;;;;5018976;28;20532;-73
2022/08/19 02:10:16;;;;;;;11.45;3.95;;;;;;;;;;5019500;28;20322;-74
2022/08/19 02:12:42;;;;;;;8.75;3.78;;;;;;;;;;5019554;28;20036;-74
2022/08/19 02:15:08;;;;;;;7.40;3.40;;;;;;;;;;5019460;28;20267;-74
2022/08/19 02:17:34;;;;;;;11.20;3.95;;;;;;;;;;5019401;28;20026;-74
2022/08/19 02:20:00;;;;;;;7.43;3.65;;;;;;;;;;5018778;28;20034;-74
2022/08/19 02:22:26;;;;;;;7.00;3.63;;;;;;;;;;5014652;28;20114;-74
2022/08/19 02:24:52;;;;;;;5.75;3.55;;;;;;;;;;5019148;28;20017;-73
2022/08/19 02:27:18;;;;;;;9.15;3.50;;;;;;;;;;5017812;28;20038;-74
2022/08/19 02:29:45;;;;;;;10.00;4.00;;;;;;;;;;5016703;28;20080;-74
2022/08/19 02:32:10;;;;;;;9.95;3.60;;;;;;;;;;5018636;28;20030;-74
2022/08/19 02:34:36;;;;;;;10.18;3.55;;;;;;;;;;5018432;28;20075;-73
2022/08/19 02:37:01;;;;;;;8.70;3.70;;;;;;;;;;5016171;28;20337;-74
2022/08/19 02:39:27;;;;;;;7.90;3.53;;;;;;;;;;5011261;28;20093;-74
2022/08/19 02:41:52;;;;;;;9.43;3.63;;;;;;;;;;5019031;28;20097;-73
2022/08/19 02:44:18;;;;;;;8.88;3.20;;;;;;;;;;4997613;28;20018;-74
2022/08/19 02:46:46;;;;;;;10.50;3.53;;;;;;;;;;5016570;28;20104;-74
2022/08/19 02:49:11;;;;;;;7.05;3.38;;;;;;;;;;5018008;28;20022;-73
2022/08/19 02:51:40;;;;;;;11.52;4.07;;;;;;;;;;5016424;28;20045;-74
2022/08/19 02:54:06;;;;;;;8.48;3.47;;;;;;;;;;5018993;28;20252;-74
2022/08/19 02:56:36;;;;;;;8.90;3.63;;;;;;;;;;5018764;28;20046;-74
2022/08/19 02:59:02;;;;;;;11.98;3.65;;;;;;;;;;5018669;28;20033;-73
2022/08/19 03:01:30;;;;;;;10.10;3.33;;;;;;;;;;5018685;28;20036;-74
2022/08/19 03:03:59;;;;;;;8.68;3.20;;;;;;;;;;5018498;28;20026;-73
2022/08/19 03:06:25;;;;;;;8.55;3.20;;;;;;;;;;5016231;28;20079;-74
2022/08/19 03:08:51;;;;;;;10.45;3.63;;;;;;;;;;5014844;28;20071;-74
2022/08/19 03:11:18;;;;;;;9.18;3.35;;;;;;;;;;5018722;28;20030;-73
2022/08/19 03:13:44;;;;;;;9.13;3.38;;;;;;;;;;5016311;28;20042;-74
2022/08/19 03:16:12;;;;;;;10.85;4.00;;;;;;;;;;5012356;28;20405;-74
2022/08/19 03:18:38;;;;;;;9.52;3.60;;;;;;;;;;5010896;28;20040;-74
2022/08/19 03:21:03;;;;;;;8.65;3.60;;;;;;;;;;5015339;28;20037;-74
2022/08/19 03:23:29;;;;;;;10.45;3.80;;;;;;;;;;5015261;28;20056;-74
2022/08/19 03:25:54;;;;;;;9.05;3.30;;;;;;;;;;5015147;28;20390;-73
2022/08/19 03:28:20;;;;;;;7.72;3.47;;;;;;;;;;5018196;28;20040;-74
2022/08/19 03:30:58;;;;;;;9.80;3.45;;;;;;;;;;5018389;28;20037;-75
2022/08/19 03:33:25;;;;;;;7.57;3.28;;;;;;;;;;5017443;28;20025;-73
2022/08/19 03:36:22;;;;;;;6.03;3.20;;;;;;;;;;5011797;28;20505;-74
2022/08/19 03:38:51;;;;;;;10.23;3.72;;;;;;;;;;5006457;28;20042;-74
2022/08/19 03:41:23;;;;;;;8.27;3.38;;;;;;;;;;5015353;28;20089;-73
2022/08/19 03:43:49;;;;;;;11.35;3.50;;;;;;;;;;5017760;28;20026;-73
2022/08/19 03:46:20;;;;;;;9.65;3.70;;;;;;;;;;5018347;28;20028;-76
2022/08/19 03:48:47;;;;;;;9.07;3.55;;;;;;;;;;5020272;28;20064;-74
2022/08/19 03:51:19;;;;;;;10.73;3.15;;;;;;;;;;5020270;28;20282;-73
2022/08/19 03:53:46;;;;;;;12.65;3.78;;;;;;;;;;5010041;28;20030;-74
2022/08/19 03:56:12;;;;;;;8.50;3.28;;;;;;;;;;5010141;28;20084;-74
2022/08/19 03:58:39;;;;;;;9.30;3.60;;;;;;;;;;5016974;28;20029;-74
2022/08/19 04:01:11;;;;;;;7.50;3.33;;;;;;;;;;5020331;28;20044;-74
2022/08/19 04:03:37;;;;;;;12.05;3.60;;;;;;;;;;5011776;28;20108;-74
2022/08/19 04:06:14;;;;;;;9.80;4.00;;;;;;;;;;5010061;28;20526;-74
2022/08/19 04:08:41;;;;;;;7.72;3.30;;;;;;;;;;5016630;28;20030;-75
2022/08/19 04:11:14;;;;;;;11.18;3.25;;;;;;;;;;5021263;28;20071;-75
2022/08/19 04:13:40;;;;;;;9.90;3.10;;;;;;;;;;5009884;28;20022;-73
2022/08/19 04:16:08;;;;;;;9.23;3.30;;;;;;;;;;5011172;28;20057;-75
2022/08/19 04:18:34;;;;;;;12.18;3.50;;;;;;;;;;5019248;28;20029;-75
2022/08/19 04:21:00;;;;;;;8.15;3.40;;;;;;;;;;5016877;28;20109;-75
2022/08/19 04:23:27;;;;;;;7.93;3.30;;;;;;;;;;5009524;28;20173;-75
2022/08/19 04:25:52;;;;;;;7.28;3.00;;;;;;;;;;5009824;28;20512;-73
2022/08/19 04:28:17;;;;;;;7.80;3.08;;;;;;;;;;5009273;28;20026;-75
2022/08/19 04:30:47;;;;;;;9.32;3.13;;;;;;;;;;5009475;28;20104;-75
2022/08/19 04:33:14;;;;;;;7.80;2.95;;;;;;;;;;5012598;28;20028;-75
2022/08/19 04:35:41;;;;;;;5.70;3.08;;;;;;;;;;5020953;28;20033;-75
2022/08/19 04:38:07;;;;;;;7.55;3.30;;;;;;;;;;5019659;28;20029;-75
2022/08/19 04:43:16;;;;;;;8.50;3.28;;;;;;;;;;5020908;28;20379;-75
2022/08/19 04:45:45;;;;;;;7.13;3.00;;;;;;;;;;5020763;28;20033;-75
2022/08/19 04:48:12;;;;;;;10.25;3.25;;;;;;;;;;5020278;28;20109;-75
2022/08/19 04:50:42;;;;;;;8.82;2.88;;;;;;;;;;5013411;28;20030;-75
2022/08/19 04:53:08;;;;;;;9.02;2.90;;;;;;;;;;5009068;28;20030;-75
2022/08/19 04:55:35;;;;;;;6.90;3.17;;;;;;;;;;5015494;28;20233;-75
2022/08/19 04:58:02;;;;;;;9.02;3.10;;;;;;;;;;5020482;28;20034;-75
2022/08/19 05:00:27;;;;;;;8.18;2.97;;;;;;;;;;5020456;28;20317;-75
2022/08/19 05:02:55;;;;;;;6.75;2.85;;;;;;;;;;5020539;28;20036;-75
2022/08/19 05:05:21;;;;;;;8.68;3.28;;;;;;;;;;5020351;28;20041;-73
2022/08/19 05:07:46;;;;;;;8.35;3.22;;;;;;;;;;5012879;28;20079;-75
2022/08/19 05:10:12;;;;;;;9.00;3.15;;;;;;;;;;5017776;28;20240;-75
2022/08/19 05:12:38;;;;;;;13.63;3.33;;;;;;;;;;5020494;28;20029;-75
2022/08/19 05:15:05;;;;;;;9.40;3.70;;;;;;;;;;5020289;28;20029;-75
2022/08/19 05:17:31;;;;;;;9.70;3.22;;;;;;;;;;5018823;28;20030;-75
2022/08/19 05:22:43;;;;;;;8.93;3.38;;;;;;;;;;5011421;28;20033;-75
2022/08/19 05:25:12;;;;;;;6.90;3.10;;;;;;;;;;5010379;28;20489;-75
2022/08/19 05:27:38;;;;;;;9.10;3.08;;;;;;;;;;5012251;28;20065;-75
2022/08/19 05:30:04;;;;;;;10.50;2.90;;;;;;;;;;5012759;28;20037;-75
2022/08/19 05:32:29;;;;;;;9.25;2.92;;;;;;;;;;5009990;28;20033;-75
2022/08/19 05:34:55;;;;;;;7.85;2.97;;;;;;;;;;5017859;28;20097;-75
2022/08/19 05:37:21;;;;;;;11.15;3.40;;;;;;;;;;5014627;28;20109;-75
2022/08/19 05:39:46;;;;;;;9.18;3.20;;;;;;;;;;5016232;28;20026;-75
2022/08/19 05:42:12;;;;;;;9.48;3.40;;;;;;;;;;5020012;28;20434;-75
2022/08/19 05:44:43;;;;;;;7.88;3.08;;;;;;;;;;5016389;28;20026;-75
2022/08/19 05:47:11;;;;;;;11.27;3.22;;;;;;;;;;5019294;28;20029;-75
2022/08/19 05:49:38;;;;;;;9.05;3.17;;;;;;;;;;5016873;28;20030;-75
2022/08/19 05:52:10;;;;;;;12.35;3.47;;;;;;;;;;4995134;28;20059;-75
2022/08/19 05:54:39;;;;;;;9.40;3.38;;;;;;;;;;5008273;28;20083;-75
2022/08/19 05:57:05;;;;;;;10.32;3.28;;;;;;;;;;4991195;28;20493;-75
2022/08/19 05:59:31;;;;;;;9.85;3.13;;;;;;;;;;5014451;28;20325;-75
2022/08/19 06:01:56;;;;;;;9.85;3.40;;;;;;;;;;5012821;28;20108;-75
2022/08/19 06:04:22;;;;;;;9.60;3.03;;;;;;;;;;5008098;28;20046;-75
2022/08/19 06:06:52;;;;;;;10.57;3.70;;;;;;;;;;5012838;28;20061;-75
2022/08/19 06:09:18;;;;;;;8.40;3.30;;;;;;;;;;5007474;28;20033;-75
2022/08/19 06:11:53;;;;;;;6.72;3.10;;;;;;;;;;5008044;28;20038;-75
2022/08/19 06:14:24;;;;;;;10.13;3.45;;;;;;;;;;5015360;28;20317;-75
2022/08/19 06:16:52;;;;;;;13.48;3.30;;;;;;;;;;5014752;28;20044;-75
2022/08/19 06:19:19;;;;;;;9.13;3.40;;;;;;;;;;5019242;28;20034;-75
2022/08/19 06:21:47;;;;;;;10.25;3.20;;;;;;;;;;5014415;28;20375;-75
2022/08/19 06:24:15;;;;;;;10.68;3.53;;;;;;;;;;5017160;28;20025;-75
2022/08/19 06:26:43;;;;;;;13.07;3.78;;;;;;;;;;5001738;28;20029;-75
2022/08/19 06:29:11;;;;;;;9.50;3.20;;;;;;;;;;5018888;28;20026;-74
2022/08/19 06:31:41;;;;;;;8.77;3.47;;;;;;;;;;5015086;28;20113;-73
2022/08/19 06:34:07;;;;;;;7.43;3.13;;;;;;;;;;5008185;28;20061;-74
2022/08/19 06:36:35;;;;;;;11.35;3.30;;;;;;;;;;5018166;28;20525;-74
2022/08/19 06:39:09;;;;;;;8.80;3.28;;;;;;;;;;5016918;28;20325;-73
2022/08/19 06:41:37;;;;;;;10.60;3.45;;;;;;;;;;5019057;28;20086;-81
2022/08/19 06:44:04;;;;;;;12.43;3.45;;;;;;;;;;5019118;28;20053;-72
2022/08/19 06:46:30;;;;;;;8.73;3.38;;;;;;;;;;5018818;28;20054;-71
2022/08/19 06:48:56;;;;;;;8.95;3.50;;;;;;;;;;5018803;28;20037;-76
2022/08/19 06:51:23;;;;;;;11.13;3.22;;;;;;;;;;5018533;28;20029;-75
2022/08/19 06:53:50;;;;;;;9.45;3.40;;;;;;;;;;5018825;28;20029;-78
2022/08/19 06:56:18;;;;;;;8.73;3.20;;;;;;;;;;5018962;28;20042;-75
2022/08/19 06:58:43;;;;;;;10.18;3.35;;;;;;;;;;5018810;28;20029;-75
2022/08/19 07:01:09;;;;;;;9.13;3.35;;;;;;;;;;5018830;28;20099;-74
2022/08/19 07:03:38;;;;;;;7.07;3.15;;;;;;;;;;5020541;28;20029;-70
2022/08/19 07:06:05;;;;;;;13.43;3.22;;;;;;;;;;5018570;28;20400;-72
2022/08/19 07:08:31;;;;;;;12.00;3.55;;;;;;;;;;5017762;28;20040;-73
2022/08/19 07:10:56;;;;;;;10.90;3.40;;;;;;;;;;5018562;28;20030;-75
2022/08/19 07:13:22;;;;;;;7.93;3.03;;;;;;;;;;5017400;28;20053;-76
2022/08/19 07:15:49;;;;;;;9.65;3.60;;;;;;;;;;5000766;28;20033;-75
2022/08/19 07:18:16;;;;;;;6.90;2.60;;;;;;;;;;5018817;28;20039;-75
2022/08/19 07:20:42;;;;;;;10.00;2.95;;;;;;;;;;5017486;28;20037;-74
2022/08/19 07:23:09;;;;;;;7.82;3.40;;;;;;;;;;5017714;28;20025;-73
2022/08/19 07:25:37;;;;;;;9.55;3.35;;;;;;;;;;5018377;28;20048;-75
2022/08/19 07:28:03;;;;;;;8.35;3.15;;;;;;;;;;5018318;28;20034;-75
2022/08/19 07:30:28;;;;;;;10.20;3.30;;;;;;;;;;5018269;28;20101;-75
2022/08/19 07:32:54;;;;;;;12.27;3.28;;;;;;;;;;5017459;28;20328;-72
2022/08/19 07:35:20;;;;;;;9.95;3.63;;;;;;;;;;5018123;28;20026;-72
2022/08/19 07:37:45;;;;;;;8.85;2.97;;;;;;;;;;5017976;28;20328;-71
2022/08/19 07:40:12;;;;;;;8.18;2.70;;;;;;;;;;4999866;28;20038;-72
2022/08/19 07:42:37;;;;;;;10.50;3.30;;;;;;;;;;5018070;28;20091;-72
2022/08/19 07:45:04;;;;;;;8.77;3.30;;;;;;;;;;5016716;28;20131;-71
2022/08/19 07:47:29;;;;;;;9.02;3.03;;;;;;;;;;5017551;28;20310;-73
2022/08/19 07:49:55;;;;;;;10.07;3.22;;;;;;;;;;5014086;28;20030;-73
2022/08/19 07:52:22;;;;;;;10.50;3.30;;;;;;;;;;5006416;28;20032;-74
2022/08/19 07:54:49;;;;;;;8.45;2.85;;;;;;;;;;5007091;28;20076;-72
2022/08/19 07:57:15;;;;;;;9.60;3.17;;;;;;;;;;5011008;28;20109;-73
2022/08/19 07:59:40;;;;;;;7.05;3.00;;;;;;;;;;4991754;28;20046;-72
2022/08/19 08:02:07;;;;;;;8.05;3.10;;;;;;;;;;5012024;28;20037;-75
2022/08/19 08:10:01;;;;;;;7.63;2.92;;;;;;;;;;5006800;28;20048;-74
2022/08/19 08:12:31;;;;;;;6.97;3.00;;;;;;;;;;5009830;28;20026;-77
2022/08/19 08:15:01;;;;;;;9.13;3.03;;;;;;;;;;5010629;28;20029;-73
2022/08/19 08:17:28;;;;;;;7.50;2.90;;;;;;;;;;5017115;28;20032;-74
2022/08/19 08:19:54;;;;;;;10.20;3.20;;;;;;;;;;5015522;28;20042;-74
2022/08/19 08:25:10;;;;;;;8.85;3.47;;;;;;;;;;5010018;28;20041;-73
2022/08/19 08:27:39;;;;;;;8.50;3.05;;;;;;;;;;5012403;28;20037;-74
2022/08/19 08:30:08;;;;;;;10.18;3.20;;;;;;;;;;5017478;28;20061;-73
2022/08/19 08:32:34;;;;;;;9.75;3.28;;;;;;;;;;5017039;28;20029;-74
2022/08/19 08:35:00;;;;;;;9.98;3.33;;;;;;;;;;5014299;28;20029;-74
2022/08/19 08:37:25;;;;;;;11.70;3.13;;;;;;;;;;5018514;28;20344;-73
2022/08/19 08:39:51;;;;;;;7.65;3.22;;;;;;;;;;5017706;28;20133;-74
2022/08/19 08:42:19;;;;;;;6.85;2.88;;;;;;;;;;5018451;28;20043;-74
2022/08/19 08:45:13;;;;;;;7.25;2.97;;;;;;;;;;5014150;28;20240;-73
2022/08/19 08:47:41;;;;;;;7.80;3.08;;;;;;;;;;5018786;28;20029;-74
2022/08/19 08:50:14;;;;;;;8.90;3.13;;;;;;;;;;5012062;28;20090;-74
2022/08/19 08:52:45;;;;;;;8.00;2.85;;;;;;;;;;5018160;28;20110;-73
2022/08/19 08:55:22;;;;;;;8.82;2.92;;;;;;;;;;5015011;28;20025;-74
2022/08/19 08:57:47;;;;;;;7.53;3.03;;;;;;;;;;5017952;28;20377;-75
2022/08/19 09:00:20;;;;;;;8.15;2.83;;;;;;;;;;5016230;28;20458;-75
2022/08/19 09:02:46;;;;;;;8.00;2.50;;;;;;;;;;5000623;28;20026;-75
2022/08/19 09:05:12;;;;;;;7.07;2.97;;;;;;;;;;5017951;28;20050;-75
2022/08/19 09:07:43;;;;;;;6.72;3.08;;;;;;;;;;5018422;28;20318;-75
2022/08/19 09:10:40;;;;;;;8.80;2.85;;;;;;;;;;5016755;28;20040;-73
2022/08/19 09:13:08;;;;;;;7.18;2.90;;;;;;;;;;5018927;28;20097;-74
2022/08/19 09:15:44;;;;;;;7.20;2.90;;;;;;;;;;5015616;28;20034;-74
2022/08/19 09:18:10;;;;;;;7.43;3.05;;;;;;;;;;5009380;28;20122;-73
2022/08/19 09:20:35;;;;;;;6.78;2.67;;;;;;;;;;5008472;28;20113;-73
2022/08/19 09:23:01;;;;;;;8.25;2.85;;;;;;;;;;5008232;28;20520;-73
2022/08/19 09:25:26;;;;;;;6.85;2.90;;;;;;;;;;5010124;28;20034;-73
2022/08/19 09:28:02;;;;;;;5.32;2.90;;;;;;;;;;5008473;28;20128;-74
2022/08/19 09:30:31;;;;;;;10.50;3.20;;;;;;;;;;5006316;28;20538;-73
2022/08/19 09:32:56;;;;;;;7.78;2.70;;;;;;;;;;5008604;28;20117;-73
2022/08/19 09:35:25;;;;;;;8.15;3.05;;;;;;;;;;5010156;28;20072;-73
2022/08/19 09:37:51;;;;;;;6.47;2.92;;;;;;;;;;5008336;28;20492;-72
2022/08/19 09:40:17;;;;;;;8.60;3.08;;;;;;;;;;5007826;28;20034;-72
2022/08/19 09:42:44;;;;;;;6.72;2.92;;;;;;;;;;5007972;28;20090;-73
2022/08/19 09:45:10;;;;;;;6.70;3.40;;;;;;;;;;5005927;28;20026;-72
2022/08/19 09:47:37;;;;;;;6.75;3.28;;;;;;;;;;5008765;28;20049;-72
2022/08/19 09:50:08;;;;;;;11.25;3.25;;;;;;;;;;5008778;28;20041;-71
2022/08/19 09:52:36;;;;;;;6.90;3.05;;;;;;;;;;5009988;28;20017;-71
2022/08/19 09:55:07;;;;;;;7.18;3.08;;;;;;;;;;5008322;28;20108;-72
2022/08/19 09:57:33;;;;;;;9.18;2.90;;;;;;;;;;5008880;28;20028;-72
2022/08/19 09:59:59;;;;;;;5.32;2.90;;;;;;;;;;5010636;28;20026;-72
2022/08/19 10:02:24;;;;;;;7.50;3.20;;;;;;;;;;5010233;28;20026;-72
2022/08/19 10:07:35;;;;;;;10.20;3.25;;;;;;;;;;5008085;28;20040;-71
2022/08/19 10:10:01;;;;;;;11.52;3.50;;;;;;;;;;5008099;28;20034;-72
2022/08/19 10:12:27;;;;;;;6.60;2.90;;;;;;;;;;5008166;28;20034;-74
2022/08/19 10:14:54;;;;;;;7.63;3.15;;;;;;;;;;4988583;28;20022;-72
2022/08/19 10:17:20;;;;;;;9.05;3.17;;;;;;;;;;5009980;28;20037;-72
2022/08/19 10:19:46;;;;;;;8.45;3.03;;;;;;;;;;5009727;28;20370;-73
2022/08/19 10:22:14;;;;;;;10.18;2.83;;;;;;;;;;5009375;28;20040;-71
2022/08/19 10:24:39;;;;;;;7.07;2.78;;;;;;;;;;5007855;28;20033;-72
2022/08/19 10:27:05;;;;;;;8.73;3.00;;;;;;;;;;5006484;28;20111;-72
2022/08/19 10:29:31;;;;;;;6.68;2.90;;;;;;;;;;5007113;28;20030;-72
2022/08/19 10:31:59;;;;;;;6.68;2.70;;;;;;;;;;5007587;28;20034;-72
2022/08/19 10:34:26;;;;;;;9.38;3.10;;;;;;;;;;5007547;28;20650;-71
2022/08/19 10:36:51;;;;;;;8.75;3.10;;;;;;;;;;5006949;28;20034;-70
2022/08/19 10:39:16;;;;;;;5.13;2.70;;;;;;;;;;5006913;28;20033;-70
2022/08/19 10:41:43;;;;;;;6.30;2.70;;;;;;;;;;5007024;28;20034;-71
2022/08/19 10:44:11;;;;;;;5.75;2.95;;;;;;;;;;5007593;28;20034;-72
2022/08/19 10:46:41;;;;;;;6.30;2.60;;;;;;;;;;5007420;28;20030;-71
2022/08/19 10:49:08;;;;;;;6.72;2.90;;;;;;;;;;5007661;28;20029;-70
2022/08/19 10:54:18;;;;;;;4.45;2.70;;;;;;;;;;5007466;28;20040;-70
2022/08/19 10:56:53;;;;;;;8.55;3.28;;;;;;;;;;5007172;28;20048;-70
2022/08/19 10:59:20;;;;;;;6.60;2.80;;;;;;;;;;5007246;28;20026;-70
2022/08/19 11:01:46;;;;;;;7.82;3.15;;;;;;;;;;5007303;28;20037;-70
2022/08/19 11:04:13;;;;;;;10.05;2.95;;;;;;;;;;5007421;28;20046;-70
2022/08/19 11:06:43;;;;;;;5.50;2.70;;;;;;;;;;5006809;28;20038;-70
2022/08/19 11:09:09;;;;;;;6.90;2.83;;;;;;;;;;5007061;28;20037;-70
2022/08/19 11:11:40;;;;;;;5.45;2.97;;;;;;;;;;5006902;28;20029;-70
2022/08/19 11:14:10;;;;;;;4.13;2.80;;;;;;;;;;5007193;28;20097;-72
2022/08/19 11:16:38;;;;;;;6.10;2.90;;;;;;;;;;5007237;28;20034;-71
2022/08/19 11:19:04;;;;;;;6.88;2.85;;;;;;;;;;5007227;28;20030;-72
2022/08/19 11:21:32;;;;;;;9.52;2.85;;;;;;;;;;5006548;28;20034;-71
2022/08/19 11:24:01;;;;;;;6.22;3.00;;;;;;;;;;4989377;28;20059;-70
2022/08/19 11:26:27;;;;;;;8.93;3.00;;;;;;;;;;5007194;28;20116;-72
2022/08/19 11:28:56;;;;;;;7.00;2.60;;;;;;;;;;5006763;28;20437;-70
2022/08/19 11:31:25;;;;;;;6.00;2.85;;;;;;;;;;5006649;28;20061;-71
2022/08/19 11:33:51;;;;;;;5.60;3.03;;;;;;;;;;5006860;28;20026;-71
2022/08/19 11:36:17;;;;;;;7.80;3.08;;;;;;;;;;5006440;28;20029;-72
2022/08/19 11:38:43;;;;;;;6.82;2.90;;;;;;;;;;5006821;28;20481;-71
2022/08/19 11:41:09;;;;;;;8.20;3.00;;;;;;;;;;5006697;28;20608;-70
2022/08/19 11:43:35;;;;;;;6.20;2.80;;;;;;;;;;5006804;28;20037;-71
2022/08/19 11:46:06;;;;;;;7.13;2.70;;;;;;;;;;5006515;28;20026;-71
2022/08/19 11:48:32;;;;;;;5.60;2.90;;;;;;;;;;5006389;28;20693;-71
2022/08/19 11:50:58;;;;;;;6.10;3.08;;;;;;;;;;5006466;28;20683;-72
2022/08/19 11:53:23;;;;;;;5.90;3.00;;;;;;;;;;5006206;28;20036;-71
2022/08/19 11:55:53;;;;;;;4.85;2.53;;;;;;;;;;5006538;28;20034;-72
2022/08/19 11:58:19;;;;;;;5.85;2.60;;;;;;;;;;5006741;28;20025;-71
2022/08/19 12:00:45;;;;;;;5.97;2.70;;;;;;;;;;5006287;28;20123;-72
2022/08/19 12:03:11;;;;;;;6.10;2.70;;;;;;;;;;5006423;28;20473;-71
2022/08/19 12:05:38;;;;;;;4.85;2.60;;;;;;;;;;5006259;28;20054;-72
2022/08/19 12:08:04;;;;;;;5.00;2.58;;;;;;;;;;5007860;28;20033;-72
2022/08/19 12:10:29;;;;;;;4.78;2.60;;;;;;;;;;5009769;28;20162;-72
2022/08/19 12:12:55;;;;;;;6.13;2.67;;;;;;;;;;5010005;28;20026;-71
2022/08/19 12:15:20;;;;;;;7.45;3.03;;;;;;;;;;5010164;28;20113;-72
2022/08/19 12:17:46;;;;;;;4.38;2.60;;;;;;;;;;5009749;28;20042;-72
2022/08/19 12:20:15;;;;;;;7.63;2.80;;;;;;;;;;5009720;28;20462;-72
2022/08/19 12:22:41;;;;;;;5.07;2.70;;;;;;;;;;5009173;28;20036;-73
2022/08/19 12:25:09;;;;;;;5.53;2.70;;;;;;;;;;5009631;28;20109;-74
2022/08/19 12:27:35;;;;;;;5.68;2.53;;;;;;;;;;5009653;28;20033;-72
2022/08/19 12:30:02;;;;;;;5.38;2.60;;;;;;;;;;5009751;28;20416;-73
2022/08/19 12:32:28;;;;;;;5.28;2.38;;;;;;;;;;5009373;28;20033;-71
2022/08/19 12:34:54;;;;;;;5.88;2.72;;;;;;;;;;5009563;28;20056;-70
2022/08/19 12:37:20;;;;;;;4.70;2.58;;;;;;;;;;5009092;28;20030;-72
2022/08/19 12:39:46;;;;;;;5.22;2.40;;;;;;;;;;5009442;28;20465;-72
2022/08/19 12:42:12;;;;;;;4.85;2.50;;;;;;;;;;4991807;28;20041;-71
2022/08/19 12:44:40;;;;;;;5.95;2.65;;;;;;;;;;5009505;28;20026;-71
2022/08/19 12:47:06;;;;;;;5.10;2.38;;;;;;;;;;5009422;28;20071;-71
2022/08/19 12:49:33;;;;;;;5.72;2.63;;;;;;;;;;5009316;28;20026;-72
2022/08/19 12:52:03;;;;;;;4.30;2.63;;;;;;;;;;5008740;28;20036;-72
2022/08/19 12:54:30;;;;;;;5.90;2.45;;;;;;;;;;5009274;28;20481;-72
2022/08/19 12:56:56;;;;;;;7.40;2.60;;;;;;;;;;5009091;28;20030;-72
2022/08/19 12:59:22;;;;;;;4.45;2.60;;;;;;;;;;5008943;28;20698;-72
2022/08/19 13:01:48;;;;;;;6.97;2.50;;;;;;;;;;5008937;28;20112;-71
2022/08/19 13:04:13;;;;;;;4.13;2.53;;;;;;;;;;5009080;28;20042;-75
2022/08/19 13:06:39;;;;;;;4.07;2.40;;;;;;;;;;5008762;28;20034;-74
2022/08/19 13:09:05;;;;;;;5.00;2.38;;;;;;;;;;5009133;28;20057;-74
2022/08/19 13:11:34;;;;;;;3.80;2.20;;;;;;;;;;5008648;28;20026;-73
2022/08/19 13:14:00;;;;;;;5.97;2.47;;;;;;;;;;5008752;28;20101;-72
2022/08/19 13:16:27;;;;;;;5.78;2.67;;;;;;;;;;5008872;28;20034;-72
2022/08/19 13:18:54;;;;;;;6.00;2.35;;;;;;;;;;5007720;28;20382;-71
2022/08/19 13:21:22;;;;;;;5.88;2.30;;;;;;;;;;5007930;28;20030;-70
2022/08/19 13:23:48;;;;;;;5.03;2.45;;;;;;;;;;5008552;28;20022;-70
2022/08/19 13:26:15;;;;;;;4.25;2.40;;;;;;;;;;5009009;28;20114;-70
2022/08/19 13:34:15;;;;;;;3.90;2.33;;;;;;;;;;5008746;28;20044;-69
2022/08/19 13:36:40;;;;;;;6.85;2.60;;;;;;;;;;5008214;28;20105;-70
2022/08/19 13:39:08;;;;;;;4.68;2.45;;;;;;;;;;5008698;28;20541;-69
2022/08/19 13:41:34;;;;;;;6.97;2.60;;;;;;;;;;5008354;28;20057;-70
2022/08/19 13:43:59;;;;;;;5.35;2.20;;;;;;;;;;5008665;28;20065;-70
2022/08/19 13:46:27;;;;;;;5.03;2.45;;;;;;;;;;5008445;28;20025;-70
2022/08/19 13:48:52;;;;;;;5.78;2.10;;;;;;;;;;5008299;28;20470;-69
2022/08/19 13:51:18;;;;;;;5.53;2.40;;;;;;;;;;4990208;28;20129;-71
2022/08/19 13:53:43;;;;;;;3.63;2.15;;;;;;;;;;5008448;28;20018;-69
2022/08/19 13:56:12;;;;;;;5.20;2.40;;;;;;;;;;5008352;28;20037;-73
2022/08/19 13:58:38;;;;;;;4.30;2.30;;;;;;;;;;5008373;28;20029;-70
2022/08/19 14:01:05;;;;;;;6.20;2.20;;;;;;;;;;5011091;28;20030;-71
2022/08/19 14:03:32;;;;;;;8.30;2.22;;;;;;;;;;5013473;28;20030;-72
2022/08/19 14:05:57;;;;;;;5.03;2.10;;;;;;;;;;5012309;28;20050;-70
2022/08/19 14:08:25;;;;;;;5.25;2.40;;;;;;;;;;5007558;28;20033;-70
2022/08/19 14:10:50;;;;;;;4.45;2.30;;;;;;;;;;5008044;28;20112;-73
2022/08/19 14:13:19;;;;;;;9.15;2.40;;;;;;;;;;5008071;28;20048;-71
2022/08/19 14:15:45;;;;;;;14.23;2.67;;;;;;;;;;5008029;28;20033;-68
2022/08/19 14:18:10;;;;;;;7.82;2.33;;;;;;;;;;4998981;28;20034;-71
2022/08/19 14:20:37;;;;;;;4.95;2.38;;;;;;;;;;4996658;28;20253;-69
2022/08/19 14:23:04;;;;;;;5.38;2.53;;;;;;;;;;4989155;28;20052;-73
2022/08/19 14:25:30;;;;;;;6.10;2.75;;;;;;;;;;4990207;28;20022;-69
2022/08/19 14:27:57;;;;;;;4.80;2.20;;;;;;;;;;5003117;28;20045;-71
2022/08/19 14:30:27;;;;;;;6.55;2.38;;;;;;;;;;5010336;28;20318;-70
2022/08/19 14:32:53;;;;;;;3.63;2.40;;;;;;;;;;5008306;28;20041;-70
2022/08/19 14:35:20;;;;;;;4.55;2.40;;;;;;;;;;4989558;28;20125;-70
2022/08/19 14:37:46;;;;;;;5.78;3.08;;;;;;;;;;4994198;28;20063;-68
2022/08/19 14:40:21;;;;;;;3.78;2.40;;;;;;;;;;5009281;28;20030;-68
2022/08/19 14:42:48;;;;;;;5.10;2.40;;;;;;;;;;5010135;28;20041;-72
2022/08/19 14:45:14;;;;;;;4.35;2.30;;;;;;;;;;5010876;28;20036;-69
2022/08/19 14:47:39;;;;;;;8.15;3.20;;;;;;;;;;5009242;28;20041;-69
2022/08/19 14:50:08;;;;;;;5.20;2.47;;;;;;;;;;5007409;28;20125;-69
2022/08/19 14:52:33;;;;;;;6.60;3.10;;;;;;;;;;4992991;28;20034;-69
2022/08/19 14:54:59;;;;;;;4.47;2.22;;;;;;;;;;4993115;28;20099;-68
2022/08/19 14:57:25;;;;;;;7.72;2.83;;;;;;;;;;4990393;28;20054;-69
2022/08/19 14:59:50;;;;;;;5.20;2.47;;;;;;;;;;4988812;28;20436;-71
2022/08/19 15:02:16;;;;;;;4.72;2.20;;;;;;;;;;4974532;28;20030;-71
2022/08/19 15:04:41;;;;;;;5.22;2.60;;;;;;;;;;4987527;28;20062;-74